createdAt,value
2022-08-10T00:00:37.420Z,54.4
2022-08-10T00:06:32.865Z,55.6
2022-08-10T00:12:55.360Z,54.7
2022-08-10T00:18:53.736Z,56
2022-08-10T00:24:45.601Z,56.6
2022-08-10T00:30:37.122Z,56.4
2022-08-10T00:36:33.417Z,57.7
2022-08-10T00:42:23.235Z,58.2
2022-08-10T00:48:14.300Z,58.4
2022-08-10T00:54:05.536Z,59.3
2022-08-10T01:00:10.624Z,59.3
2022-08-10T01:06:00.086Z,60
2022-08-10T01:12:42.231Z,60.4
2022-08-10T01:18:34.754Z,60.8
2022-08-10T01:24:27.015Z,61.9
2022-08-10T01:30:18.111Z,61.4
2022-08-10T01:36:09.145Z,62.2
2022-08-10T01:42:01.070Z,61.9
2022-08-10T01:47:52.460Z,61.1
2022-08-10T01:53:44.153Z,62.3
2022-08-10T01:59:36.327Z,61.9
2022-08-10T02:05:40.282Z,63
2022-08-10T02:12:08.701Z,64
2022-08-10T02:18:02.566Z,62.9
2022-08-10T02:24:01.944Z,63.5
2022-08-10T02:29:51.974Z,63.6
2022-08-10T02:35:59.933Z,63.8
2022-08-10T02:45:30.657Z,65
2022-08-10T02:52:09.798Z,65.2
2022-08-10T02:58:19.470Z,65.4
2022-08-10T03:04:09.280Z,65.2
2022-08-10T03:10:00.869Z,65.4
2022-08-10T03:17:16.094Z,66.3
2022-08-10T03:23:06.125Z,65.4
2022-08-10T03:28:58.398Z,66.9
2022-08-10T03:34:50.817Z,66.1
2022-08-10T03:40:48.221Z,66.6
2022-08-10T03:46:39.099Z,66.6
2022-08-10T03:52:30.012Z,67.5
2022-08-10T03:58:21.716Z,67.3
2022-08-10T04:04:20.791Z,67.1
2022-08-10T04:10:14.928Z,67.3
2022-08-10T04:16:09.174Z,68.2
2022-08-10T04:22:00.338Z,67.7
2022-08-10T04:27:51.551Z,68.4
2022-08-10T04:33:44.592Z,68.5
2022-08-10T04:39:37.906Z,68.4
2022-08-10T04:45:52.084Z,68.2
2022-08-10T04:51:46.336Z,68.5
2022-08-10T04:57:39.005Z,68.9
2022-08-10T05:03:32.205Z,68.4
2022-08-10T05:10:24.863Z,68.8
2022-08-10T05:16:33.680Z,66.6
2022-08-10T05:22:23.782Z,65.4
2022-08-10T05:28:15.761Z,64.7
2022-08-10T05:34:22.385Z,59.5
2022-08-10T05:40:14.977Z,59.2
2022-08-10T05:46:22.296Z,57.7
2022-08-10T05:52:12.923Z,53.9
2022-08-10T05:58:07.034Z,53.9
2022-08-10T06:03:58.008Z,40.8
2022-08-10T06:10:01.628Z,39.5
2022-08-10T06:16:00.488Z,41.7
2022-08-10T06:22:03.260Z,52.1
2022-08-10T06:27:53.214Z,54.8
2022-08-10T06:33:44.341Z,54.7
2022-08-10T06:39:37.707Z,54.6
2022-08-10T06:45:29.369Z,55.8
2022-08-10T06:51:25.061Z,56.8
2022-08-10T06:57:20.609Z,55.9
2022-08-10T07:03:12.370Z,56.4
2022-08-10T07:09:03.371Z,56.3
2022-08-10T07:15:02.174Z,58.6
2022-08-10T07:20:53.277Z,58.5
2022-08-10T07:26:46.140Z,60
2022-08-10T07:32:37.090Z,57.2
2022-08-10T07:38:28.306Z,56.6
2022-08-10T07:44:20.826Z,54
2022-08-10T07:50:11.555Z,53.7
2022-08-10T07:56:21.115Z,53.8
2022-08-10T08:02:37.560Z,54
2022-08-10T08:08:30.787Z,53.5
2022-08-10T08:14:21.765Z,53.2
2022-08-10T08:20:15.356Z,53.1
2022-08-10T08:26:10.371Z,51.5
2022-08-10T08:32:05.765Z,51.2
2022-08-10T08:38:36.040Z,50.2
2022-08-10T08:47:18.782Z,49.4
2022-08-10T08:59:18.026Z,47.5
2022-08-10T09:06:24.415Z,48.2
2022-08-10T09:13:29.265Z,46.5
2022-08-10T09:27:24.594Z,45.4
2022-08-10T09:36:31.932Z,46.7
2022-08-10T09:42:21.557Z,44
2022-08-10T09:48:12.916Z,43.3
2022-08-10T09:54:04.322Z,40.7
2022-08-10T10:00:04.029Z,40.6
2022-08-10T10:05:54.601Z,39.4
2022-08-10T10:11:46.157Z,39
2022-08-10T10:17:37.915Z,39.1
2022-08-10T10:23:31.918Z,37.3
2022-08-10T10:29:59.819Z,34.9
2022-08-10T10:35:51.515Z,35.6
2022-08-10T10:42:14.735Z,35.4
2022-08-10T10:48:31.112Z,36.3
2022-08-10T10:54:20.607Z,34.2
2022-08-10T11:00:11.823Z,33.2
2022-08-10T11:06:01.623Z,33.4
2022-08-10T11:12:04.719Z,34.7
2022-08-10T11:18:04.027Z,33.3
2022-08-10T11:24:50.626Z,33
2022-08-10T11:30:39.181Z,32.1
2022-08-10T11:36:30.486Z,33.5
2022-08-10T11:42:36.267Z,31.4
2022-08-10T11:48:57.904Z,31.5
2022-08-10T11:54:52.815Z,31.1
2022-08-10T12:00:43.250Z,30.4
2022-08-10T12:06:56.782Z,30.5
2022-08-10T12:12:46.477Z,30.1
2022-08-10T12:18:39.725Z,29.2
2022-08-10T12:24:30.853Z,30.4
2022-08-10T12:30:22.996Z,31
2022-08-10T12:36:20.134Z,31.1
2022-08-10T12:42:11.285Z,29.3
2022-08-10T12:50:34.931Z,29.3
2022-08-10T12:56:24.020Z,28.3
2022-08-10T13:02:14.605Z,28.7
2022-08-10T13:08:29.099Z,30
2022-08-10T13:14:25.530Z,30.3
2022-08-10T13:20:15.799Z,29.9
2022-08-10T13:26:07.365Z,28.1
2022-08-10T13:32:11.346Z,29.8
2022-08-10T13:38:03.191Z,28.2
2022-08-10T13:43:53.697Z,28.6
2022-08-10T13:49:44.898Z,28.9
2022-08-10T13:55:57.379Z,28.3
2022-08-10T14:01:48.098Z,28.3
2022-08-10T14:08:00.674Z,28.8
2022-08-10T14:13:51.470Z,28.6
2022-08-10T14:19:47.028Z,28.9
2022-08-10T14:26:08.141Z,28
2022-08-10T14:32:06.219Z,28.9
2022-08-10T14:37:57.031Z,28.8
2022-08-10T14:43:46.718Z,27.4
2022-08-10T14:50:00.413Z,27.2
2022-08-10T14:56:13.608Z,27.9
2022-08-10T15:02:56.370Z,28.2
2022-08-10T15:10:04.264Z,27.6
2022-08-10T15:16:14.269Z,28.3
2022-08-10T15:22:36.195Z,28.1
2022-08-10T15:29:26.118Z,28.3
2022-08-10T15:35:39.266Z,27.7
2022-08-10T15:42:00.841Z,27.5
2022-08-10T15:48:03.281Z,28.1
2022-08-10T15:54:03.622Z,27.7
2022-08-10T16:00:01.768Z,28.4
2022-08-10T16:06:04.417Z,27.8
2022-08-10T16:12:00.711Z,29.4
2022-08-10T16:17:57.617Z,28.4
2022-08-10T16:24:16.335Z,28.3
2022-08-10T16:36:38.058Z,28.3
2022-08-10T16:42:33.449Z,29
2022-08-10T16:48:52.047Z,29.4
2022-08-10T16:54:51.668Z,28.5
2022-08-10T17:01:35.294Z,29.5
2022-08-10T17:07:38.674Z,28.9
2022-08-10T17:25:52.417Z,28.5
2022-08-10T17:31:57.180Z,28.3
2022-08-10T17:38:10.524Z,28.7
2022-08-10T17:49:59.248Z,28.5
2022-08-10T17:55:55.262Z,28.7
2022-08-10T18:08:57.520Z,29.2
2022-08-10T18:14:52.233Z,29.3
2022-08-10T18:20:46.643Z,29.4
2022-08-10T18:27:11.809Z,30.2
2022-08-10T18:33:28.811Z,30.6
2022-08-10T18:40:44.751Z,31
2022-08-10T18:46:36.649Z,31.9
2022-08-10T18:52:27.691Z,33.8
2022-08-10T18:58:31.093Z,32.7
2022-08-10T19:04:22.846Z,33.6
2022-08-10T19:10:21.602Z,37
2022-08-10T19:16:17.073Z,39.5
2022-08-10T19:22:10.974Z,39.2
2022-08-10T19:28:06.979Z,39.6
2022-08-10T19:34:12.327Z,41.5
2022-08-10T19:40:13.902Z,42.2
2022-08-10T19:46:32.399Z,42.6
2022-08-10T19:52:58.581Z,43.1
2022-08-10T19:58:49.885Z,43.4
2022-08-10T20:11:47.575Z,43.2
2022-08-10T20:17:56.820Z,43.7
2022-08-10T20:23:57.521Z,43.7
2022-08-10T20:30:00.514Z,44.1
2022-08-10T20:35:54.293Z,44.6
2022-08-10T20:41:49.829Z,44.6
2022-08-10T20:47:57.090Z,44.9
2022-08-10T20:53:47.884Z,39.8
2022-08-10T21:00:05.809Z,43.7
2022-08-10T21:06:00.524Z,44.2
2022-08-10T21:11:53.101Z,43
2022-08-10T21:17:44.257Z,41.9
2022-08-10T21:23:42.049Z,40.8
2022-08-10T21:29:56.581Z,39.1
2022-08-10T21:36:07.431Z,41
2022-08-10T21:42:17.881Z,42.2
2022-08-10T21:48:30.019Z,41.3
2022-08-10T21:54:27.981Z,39.8
2022-08-10T22:00:27.429Z,39.2
2022-08-10T22:06:22.534Z,38.6
2022-08-10T22:12:37.152Z,38.7
2022-08-10T22:19:03.645Z,41.1
2022-08-10T22:25:06.115Z,41.6
2022-08-10T22:31:39.326Z,42
2022-08-10T22:37:29.298Z,40.3
2022-08-10T22:43:39.117Z,37.6
2022-08-10T23:23:29.216Z,38.5
2022-08-10T23:29:22.577Z,40.9
2022-08-10T23:36:35.848Z,42.7
